createdAt,value
2022-12-03T00:02:23.820Z,64.08
2022-12-03T00:04:51.570Z,63.94
2022-12-03T00:07:18.497Z,64.10
2022-12-03T00:09:45.235Z,64.10
2022-12-03T00:12:14.468Z,63.79
2022-12-03T00:14:44.622Z,63.92
2022-12-03T00:17:11.760Z,63.92
2022-12-03T00:19:38.419Z,64.62
2022-12-03T00:22:05.080Z,63.60
2022-12-03T00:24:34.519Z,64.17
2022-12-03T00:27:01.458Z,64.10
2022-12-03T00:29:28.571Z,64.51
2022-12-03T00:31:55.241Z,64.44
2022-12-03T00:34:22.402Z,64.47
2022-12-03T00:36:49.171Z,64.03
2022-12-03T00:39:15.971Z,64.53
2022-12-03T00:41:42.840Z,64.13
2022-12-03T00:44:10.363Z,64.16
2022-12-03T00:46:37.228Z,64.27
2022-12-03T00:49:03.971Z,63.68
2022-12-03T00:51:30.641Z,63.67
2022-12-03T00:53:57.259Z,63.85
2022-12-03T00:56:23.856Z,63.52
2022-12-03T00:58:50.842Z,63.73
2022-12-03T01:01:18.051Z,64.49
2022-12-03T01:03:44.793Z,64.53
2022-12-03T01:06:11.725Z,64.10
2022-12-03T01:08:38.414Z,64.84
2022-12-03T01:11:27.499Z,64.29
2022-12-03T01:13:54.195Z,64.82
2022-12-03T01:16:21.019Z,64.57
2022-12-03T01:18:47.967Z,65.01
2022-12-03T01:21:14.622Z,64.25
2022-12-03T01:23:41.262Z,64.62
2022-12-03T01:26:07.964Z,64.60
2022-12-03T01:28:34.629Z,64.57
2022-12-03T01:31:20.023Z,64.57
2022-12-03T01:33:48.372Z,64.40
2022-12-03T01:36:15.011Z,64.24
2022-12-03T01:38:41.620Z,64.16
2022-12-03T01:41:11.935Z,63.94
2022-12-03T01:43:46.569Z,64.42
2022-12-03T01:46:21.394Z,63.53
2022-12-03T01:48:50.590Z,63.97
2022-12-03T01:51:21.376Z,64.23
2022-12-03T01:53:48.894Z,63.95
2022-12-03T01:56:17.881Z,64.13
2022-12-03T01:58:46.393Z,63.89
2022-12-03T02:01:15.635Z,63.74
2022-12-03T02:03:43.246Z,63.92
2022-12-03T02:06:18.132Z,64.52
2022-12-03T02:08:45.866Z,63.87
2022-12-03T02:11:35.654Z,63.58
2022-12-03T02:14:05.385Z,63.75
2022-12-03T02:16:32.386Z,63.44
2022-12-03T02:18:59.157Z,63.92
2022-12-03T02:21:47.564Z,64.20
2022-12-03T02:24:20.085Z,63.98
2022-12-03T02:26:46.784Z,64.36
2022-12-03T02:29:13.487Z,63.82
2022-12-03T02:31:40.226Z,64.14
2022-12-03T02:34:07.719Z,64.33
2022-12-03T02:36:36.111Z,63.98
2022-12-03T02:39:03.525Z,64.12
2022-12-03T02:41:48.738Z,64.04
2022-12-03T02:44:15.522Z,63.68
2022-12-03T02:46:42.220Z,63.12
2022-12-03T02:49:08.960Z,63.27
2022-12-03T02:51:35.796Z,62.97
2022-12-03T02:54:03.802Z,63.30
2022-12-03T02:56:33.010Z,63.06
2022-12-03T02:59:03.245Z,63.45
2022-12-03T03:01:30.060Z,63.14
2022-12-03T03:03:58.159Z,62.71
2022-12-03T03:06:25.193Z,62.87
2022-12-03T03:08:52.385Z,63.30
2022-12-03T03:11:19.163Z,62.93
2022-12-03T03:13:46.279Z,63.02
2022-12-03T03:16:13.046Z,62.65
2022-12-03T03:18:40.379Z,62.84
2022-12-03T03:21:07.834Z,62.76
2022-12-03T03:23:34.583Z,62.30
2022-12-03T03:26:05.659Z,62.43
2022-12-03T03:28:36.031Z,62.39
2022-12-03T03:31:06.581Z,62.29
2022-12-03T03:33:34.240Z,62.58
2022-12-03T03:36:01.329Z,62.76
2022-12-03T03:38:29.930Z,62.48
2022-12-03T03:40:59.157Z,62.24
2022-12-03T03:43:26.227Z,62.57
2022-12-03T03:45:53.999Z,62.40
2022-12-03T03:48:21.220Z,62.53
2022-12-03T03:50:49.081Z,62.71
2022-12-03T03:53:17.557Z,62.74
2022-12-03T03:55:44.623Z,62.68
2022-12-03T03:58:11.458Z,62.80
2022-12-03T04:00:38.219Z,63.30
2022-12-03T04:03:05.562Z,63.44
2022-12-03T04:05:32.382Z,63.25
2022-12-03T04:07:59.263Z,63.36
2022-12-03T04:10:44.591Z,63.38
2022-12-03T04:13:11.232Z,63.42
2022-12-03T04:15:37.867Z,63.32
2022-12-03T04:18:23.090Z,62.90
2022-12-03T04:20:49.776Z,62.81
2022-12-03T04:23:16.420Z,62.24
2022-12-03T04:26:01.753Z,62.49
2022-12-03T04:28:47.115Z,62.22
2022-12-03T04:31:36.855Z,62.42
2022-12-03T04:34:21.770Z,62.96
2022-12-03T04:36:48.333Z,63.55
2022-12-03T04:39:15.115Z,62.77
2022-12-03T04:41:41.866Z,63.06
2022-12-03T04:44:26.943Z,62.74
2022-12-03T04:46:53.580Z,62.56
2022-12-03T04:49:20.211Z,62.13
2022-12-03T04:51:46.975Z,62.64
2022-12-03T04:54:13.719Z,62.42
2022-12-03T04:56:40.490Z,62.37
2022-12-03T04:59:11.371Z,62.25
2022-12-03T05:01:42.644Z,61.55
2022-12-03T05:04:11.862Z,61.68
2022-12-03T05:06:42.376Z,61.78
2022-12-03T05:09:10.044Z,62.12
2022-12-03T05:11:37.193Z,62.19
2022-12-03T05:14:05.349Z,62.71
2022-12-03T05:16:32.424Z,62.52
2022-12-03T05:18:59.453Z,63.16
2022-12-03T05:21:26.316Z,63.34
2022-12-03T05:23:53.973Z,63.08
2022-12-03T05:26:20.719Z,63.43
2022-12-03T05:29:03.023Z,63.75
2022-12-03T05:31:29.916Z,63.92
2022-12-03T05:33:57.146Z,63.28
2022-12-03T05:36:25.579Z,63.54
2022-12-03T05:38:54.549Z,63.54
2022-12-03T05:41:40.107Z,63.39
2022-12-03T05:44:07.097Z,63.64
2022-12-03T05:46:33.912Z,63.50
2022-12-03T05:49:00.945Z,63.36
2022-12-03T05:51:28.457Z,63.17
2022-12-03T05:53:57.393Z,62.96
2022-12-03T05:56:27.333Z,62.38
2022-12-03T05:58:57.005Z,62.20
2022-12-03T06:01:26.968Z,61.92
2022-12-03T06:03:57.071Z,62.81
2022-12-03T06:06:23.737Z,62.83
2022-12-03T06:08:50.932Z,62.64
2022-12-03T06:11:18.360Z,62.85
2022-12-03T06:13:47.990Z,63.47
2022-12-03T06:16:14.679Z,63.39
2022-12-03T06:18:41.554Z,63.57
2022-12-03T06:21:08.313Z,63.71
2022-12-03T06:23:36.002Z,63.82
2022-12-03T06:26:03.316Z,63.81
2022-12-03T06:28:30.024Z,63.96
2022-12-03T06:31:03.028Z,64.47
2022-12-03T06:33:30.413Z,64.05
2022-12-03T06:35:57.395Z,64.61
2022-12-03T06:38:24.257Z,64.54
2022-12-03T06:40:54.274Z,64.60
2022-12-03T06:43:20.721Z,64.75
2022-12-03T06:45:48.019Z,65.54
2022-12-03T06:48:15.020Z,65.79
2022-12-03T06:50:44.723Z,65.10
2022-12-03T06:53:11.280Z,65.34
2022-12-03T06:55:47.502Z,65.62
2022-12-03T06:58:21.982Z,65.59
2022-12-03T07:00:52.497Z,65.67
2022-12-03T07:03:28.193Z,65.59
2022-12-03T07:09:16.700Z,64.87
2022-12-03T07:11:54.724Z,64.43
2022-12-03T07:14:29.715Z,64.55
2022-12-03T07:17:15.342Z,64.89
2022-12-03T07:20:29.260Z,64.30
2022-12-03T07:23:12.592Z,64.72
2022-12-03T07:25:49.045Z,64.85
2022-12-03T07:28:52.319Z,64.12
2022-12-03T07:31:22.798Z,64.53
2022-12-03T07:33:59.810Z,63.84
2022-12-03T07:36:35.145Z,64.54
2022-12-03T07:39:15.702Z,64.57
2022-12-03T07:42:02.016Z,63.84
2022-12-03T07:44:42.728Z,64.12
2022-12-03T07:47:17.241Z,64.35
2022-12-03T07:49:47.314Z,64.15
2022-12-03T07:52:20.890Z,64.40
2022-12-03T07:54:57.892Z,63.61
2022-12-03T07:57:30.866Z,64.10
2022-12-03T07:59:57.984Z,63.59
2022-12-03T08:02:25.167Z,63.74
2022-12-03T08:04:52.681Z,63.11
2022-12-03T08:07:20.367Z,62.61
2022-12-03T08:09:47.537Z,63.25
2022-12-03T08:12:25.319Z,63.10
2022-12-03T08:14:53.175Z,62.26
2022-12-03T08:17:21.756Z,62.00
2022-12-03T08:19:50.028Z,62.31
2022-12-03T08:22:16.998Z,62.00
2022-12-03T08:24:44.110Z,61.61
2022-12-03T08:27:20.076Z,63.22
2022-12-03T08:29:49.904Z,62.26
2022-12-03T08:32:17.140Z,61.95
2022-12-03T08:34:47.288Z,61.33
2022-12-03T08:37:19.576Z,61.14
2022-12-03T08:39:50.552Z,60.74
2022-12-03T08:42:43.872Z,60.43
2022-12-03T08:45:29.673Z,60.15
2022-12-03T08:48:01.917Z,59.33
2022-12-03T08:50:34.386Z,59.25
2022-12-03T08:53:30.736Z,59.89
2022-12-03T08:56:02.689Z,60.17
2022-12-03T08:58:45.698Z,60.51
2022-12-03T09:01:35.210Z,60.18
2022-12-03T09:04:21.637Z,60.36
2022-12-03T09:06:50.494Z,59.85
2022-12-03T09:09:18.543Z,59.97
2022-12-03T09:11:46.466Z,59.21
2022-12-03T09:14:18.493Z,59.31
2022-12-03T09:16:46.490Z,59.22
2022-12-03T09:19:13.916Z,59.75
2022-12-03T09:21:44.587Z,59.54
2022-12-03T09:24:14.745Z,59.34
2022-12-03T09:26:42.075Z,59.45
2022-12-03T09:29:12.303Z,58.74
2022-12-03T09:31:40.665Z,58.32
2022-12-03T09:34:08.691Z,58.36
2022-12-03T09:36:35.925Z,58.00
2022-12-03T09:39:05.574Z,57.67
2022-12-03T09:41:34.559Z,57.97
2022-12-03T09:44:05.470Z,58.12
2022-12-03T09:46:36.178Z,57.41
2022-12-03T09:49:09.459Z,57.13
2022-12-03T09:51:40.125Z,56.71
2022-12-03T09:54:07.614Z,56.46
2022-12-03T09:56:38.555Z,56.13
2022-12-03T09:59:21.561Z,55.75
2022-12-03T10:01:53.230Z,55.16
2022-12-03T10:04:20.580Z,55.44
2022-12-03T10:06:50.904Z,55.35
2022-12-03T10:09:24.573Z,55.12
2022-12-03T10:11:56.326Z,55.47
2022-12-03T10:14:23.715Z,56.02
2022-12-03T10:16:51.371Z,55.76
2022-12-03T10:19:39.732Z,55.46
2022-12-03T10:22:09.406Z,55.71
2022-12-03T10:24:45.723Z,55.85
2022-12-03T10:27:30.579Z,55.69
2022-12-03T10:29:59.694Z,55.53
2022-12-03T10:32:41.521Z,55.59
2022-12-03T10:35:20.804Z,55.23
2022-12-03T10:38:08.054Z,55.76
2022-12-03T10:40:37.556Z,55.18
2022-12-03T10:43:22.963Z,54.61
2022-12-03T10:46:12.793Z,53.82
2022-12-03T10:48:39.643Z,53.96
2022-12-03T10:51:15.514Z,54.47
2022-12-03T10:53:42.445Z,53.93
2022-12-03T10:56:16.451Z,53.52
2022-12-03T10:58:43.085Z,53.30
2022-12-03T11:01:22.342Z,52.40
2022-12-03T11:03:49.863Z,51.68
2022-12-03T11:06:19.729Z,51.66
2022-12-03T11:08:57.519Z,51.58
2022-12-03T11:11:27.813Z,52.88
2022-12-03T11:13:59.362Z,53.66
2022-12-03T11:16:41.065Z,54.85
2022-12-03T11:19:20.627Z,54.87
2022-12-03T11:22:05.846Z,54.80
2022-12-03T11:24:37.596Z,54.92
2022-12-03T11:27:04.136Z,54.55
2022-12-03T11:29:59.100Z,53.90
2022-12-03T11:32:38.309Z,53.55
2022-12-03T11:35:16.294Z,53.87
2022-12-03T11:37:45.776Z,54.43
2022-12-03T11:40:18.777Z,54.23
2022-12-03T11:42:47.350Z,54.48
2022-12-03T11:45:27.285Z,54.80
2022-12-03T11:48:06.102Z,54.52
2022-12-03T11:50:39.660Z,55.00
2022-12-03T11:53:22.436Z,55.12
2022-12-03T11:56:06.726Z,55.07
2022-12-03T11:58:35.943Z,54.88
2022-12-03T12:01:04.963Z,55.60
2022-12-03T12:03:37.111Z,54.99
2022-12-03T12:06:06.124Z,55.76
2022-12-03T12:08:34.975Z,55.82
2022-12-03T12:11:15.716Z,55.47
2022-12-03T12:13:45.490Z,55.66
2022-12-03T12:16:12.319Z,55.40
2022-12-03T12:18:54.848Z,55.87
2022-12-03T12:21:48.106Z,55.96
2022-12-03T12:24:30.454Z,55.72
2022-12-03T12:27:02.579Z,56.00
2022-12-03T12:29:32.064Z,55.40
2022-12-03T12:32:17.873Z,55.55
2022-12-03T12:34:48.115Z,55.40
2022-12-03T12:37:21.966Z,55.34
2022-12-03T12:39:52.977Z,55.26
2022-12-03T12:42:34.480Z,54.81
2022-12-03T12:45:12.495Z,54.81
2022-12-03T12:47:46.490Z,55.25
2022-12-03T12:50:14.333Z,56.02
2022-12-03T12:53:08.312Z,55.46
2022-12-03T12:55:35.676Z,55.24
2022-12-03T12:58:07.837Z,55.52
2022-12-03T13:00:46.355Z,55.48
2022-12-03T13:03:17.245Z,55.39
2022-12-03T13:05:48.329Z,55.14
2022-12-03T13:08:31.671Z,54.43
2022-12-03T13:11:00.698Z,55.14
2022-12-03T13:13:32.490Z,54.49
2022-12-03T13:16:02.153Z,54.91
2022-12-03T13:18:44.589Z,55.15
2022-12-03T13:21:44.419Z,55.51
2022-12-03T13:24:27.172Z,56.18
2022-12-03T13:26:58.127Z,56.65
2022-12-03T13:29:27.067Z,56.03
2022-12-03T13:32:00.518Z,56.57
2022-12-03T13:34:32.385Z,57.58
2022-12-03T13:37:08.402Z,56.97
2022-12-03T13:39:38.303Z,55.91
2022-12-03T13:42:27.723Z,56.62
2022-12-03T13:44:58.357Z,56.95
2022-12-03T13:47:28.444Z,56.73
2022-12-03T13:50:07.526Z,57.03
2022-12-03T13:52:35.605Z,56.68
2022-12-03T13:55:07.533Z,56.63
2022-12-03T13:57:35.247Z,56.75
2022-12-03T14:00:01.898Z,57.02
2022-12-03T14:02:39.120Z,56.60
2022-12-03T14:05:07.836Z,57.11
2022-12-03T14:07:35.076Z,57.22
2022-12-03T14:10:09.362Z,57.27
2022-12-03T14:12:39.362Z,56.59
2022-12-03T14:15:06.881Z,57.14
2022-12-03T14:17:34.371Z,57.62
2022-12-03T14:20:01.960Z,57.74
2022-12-03T14:22:31.963Z,57.93
2022-12-03T14:24:58.932Z,57.92
2022-12-03T14:27:28.192Z,57.99
2022-12-03T14:29:56.794Z,57.95
2022-12-03T14:32:26.812Z,57.73
2022-12-03T14:34:56.167Z,57.50
2022-12-03T14:37:23.453Z,57.10
2022-12-03T14:39:50.325Z,57.47
2022-12-03T14:42:18.522Z,57.18
2022-12-03T14:44:47.572Z,57.67
2022-12-03T14:47:16.168Z,57.80
2022-12-03T14:49:43.048Z,58.13
2022-12-03T14:52:12.481Z,57.88
2022-12-03T14:54:42.244Z,58.04
2022-12-03T14:57:11.267Z,58.27
2022-12-03T14:59:40.773Z,58.58
2022-12-03T15:02:07.961Z,58.69
2022-12-03T15:04:37.283Z,58.13
2022-12-03T15:07:15.573Z,58.09
2022-12-03T15:09:42.228Z,58.20
2022-12-03T15:12:11.851Z,58.60
2022-12-03T15:14:39.244Z,58.14
2022-12-03T15:17:05.961Z,58.82
2022-12-03T15:19:32.783Z,58.67
2022-12-03T15:22:02.076Z,57.69
2022-12-03T15:24:32.275Z,57.94
2022-12-03T15:27:00.385Z,58.27
2022-12-03T15:29:27.320Z,57.80
2022-12-03T15:32:02.059Z,58.65
2022-12-03T15:34:31.440Z,58.91
2022-12-03T15:36:58.106Z,58.49
2022-12-03T15:39:24.972Z,58.98
2022-12-03T15:41:51.898Z,58.47
2022-12-03T15:44:18.611Z,58.44
2022-12-03T15:46:49.784Z,58.17
2022-12-03T15:49:16.819Z,58.37
2022-12-03T15:51:46.420Z,58.52
2022-12-03T15:54:13.267Z,58.13
2022-12-03T15:56:43.193Z,58.54
2022-12-03T15:59:11.075Z,58.58
2022-12-03T16:01:37.855Z,58.61
2022-12-03T16:04:05.371Z,58.47
2022-12-03T16:06:33.546Z,58.78
2022-12-03T16:09:00.194Z,59.07
2022-12-03T16:11:26.869Z,58.23
2022-12-03T16:13:54.229Z,59.00
2022-12-03T16:16:24.277Z,58.65
2022-12-03T16:18:54.058Z,59.22
2022-12-03T16:21:26.475Z,58.51
2022-12-03T16:23:54.299Z,58.46
2022-12-03T16:26:21.794Z,58.18
2022-12-03T16:28:48.840Z,58.66
2022-12-03T16:31:16.164Z,58.05
2022-12-03T16:33:43.149Z,58.83
2022-12-03T16:36:12.754Z,58.88
2022-12-03T16:38:39.498Z,59.03
2022-12-03T16:41:06.619Z,59.22
2022-12-03T16:43:51.203Z,59.25
2022-12-03T16:46:18.939Z,59.11
2022-12-03T16:48:48.655Z,58.77
2022-12-03T16:51:19.897Z,59.01
2022-12-03T16:53:49.507Z,58.96
2022-12-03T16:56:16.746Z,58.62
2022-12-03T16:58:45.019Z,59.15
2022-12-03T17:01:12.604Z,58.83
2022-12-03T17:03:39.461Z,59.47
2022-12-03T17:06:06.467Z,59.19
2022-12-03T17:08:33.724Z,58.81
2022-12-03T17:11:02.144Z,58.93
2022-12-03T17:13:31.428Z,59.18
2022-12-03T17:15:58.904Z,59.40
2022-12-03T17:18:28.881Z,59.16
2022-12-03T17:20:55.706Z,58.87
2022-12-03T17:23:23.066Z,58.88
2022-12-03T17:25:50.270Z,58.65
2022-12-03T17:28:17.359Z,59.22
2022-12-03T17:30:46.565Z,58.81
2022-12-03T17:33:13.503Z,58.20
2022-12-03T17:35:48.411Z,58.10
2022-12-03T17:38:15.365Z,58.66
2022-12-03T17:40:44.904Z,59.00
2022-12-03T17:43:11.772Z,58.64
2022-12-03T17:45:38.662Z,58.68
2022-12-03T17:48:09.009Z,58.39
2022-12-03T17:50:38.942Z,59.06
2022-12-03T17:53:10.297Z,58.28
2022-12-03T17:55:44.634Z,57.84
2022-12-03T17:58:12.386Z,58.16
2022-12-03T18:00:39.487Z,58.19
2022-12-03T18:03:06.750Z,57.91
2022-12-03T18:05:34.154Z,58.58
2022-12-03T18:08:01.556Z,58.62
2022-12-03T18:10:31.724Z,58.80
2022-12-03T18:13:02.379Z,58.61
2022-12-03T18:15:32.714Z,58.90
2022-12-03T18:18:00.719Z,58.82
2022-12-03T18:20:29.737Z,59.09
2022-12-03T18:23:01.490Z,59.19
2022-12-03T18:25:31.060Z,58.68
2022-12-03T18:28:05.551Z,58.64
2022-12-03T18:30:32.478Z,59.12
2022-12-03T18:32:59.210Z,58.29
2022-12-03T18:35:26.339Z,57.85
2022-12-03T18:37:57.567Z,58.23
2022-12-03T18:40:29.115Z,57.55
2022-12-03T18:43:00.169Z,57.27
2022-12-03T18:45:29.020Z,57.49
2022-12-03T18:47:55.869Z,57.74
2022-12-03T18:50:25.846Z,57.90
2022-12-03T18:52:55.713Z,57.47
2022-12-03T18:59:29.158Z,56.54
2022-12-03T19:02:03.882Z,56.61
2022-12-03T19:04:30.807Z,57.59
2022-12-03T19:07:00.417Z,57.22
2022-12-03T19:09:30.583Z,57.42
2022-12-03T19:11:57.710Z,57.04
2022-12-03T19:14:24.724Z,56.69
2022-12-03T19:16:52.201Z,56.87
2022-12-03T19:19:22.309Z,56.40
2022-12-03T19:21:51.423Z,56.16
2022-12-03T19:24:25.676Z,56.34
2022-12-03T19:26:55.368Z,56.56
2022-12-03T19:29:27.133Z,56.79
2022-12-03T19:31:54.597Z,56.53
2022-12-03T19:34:21.408Z,56.49
2022-12-03T19:36:50.601Z,55.94
2022-12-03T19:39:19.168Z,55.79
2022-12-03T19:41:56.490Z,56.88
2022-12-03T19:44:33.933Z,55.63
2022-12-03T19:47:05.112Z,55.39
2022-12-03T19:49:33.983Z,56.40
2022-12-03T19:52:01.289Z,56.46
2022-12-03T19:54:49.536Z,57.50
2022-12-03T19:57:23.323Z,57.14
2022-12-03T19:59:51.489Z,57.48
2022-12-03T20:02:18.774Z,56.72
2022-12-03T20:04:48.423Z,56.72
2022-12-03T20:07:21.201Z,56.77
2022-12-03T20:09:50.395Z,56.40
2022-12-03T20:12:20.624Z,56.52
2022-12-03T20:14:47.501Z,56.75
2022-12-03T20:17:17.706Z,56.76
2022-12-03T20:19:47.289Z,56.50
2022-12-03T20:22:13.953Z,56.53
2022-12-03T20:24:40.790Z,56.65
2022-12-03T20:27:09.988Z,56.90
2022-12-03T20:29:40.209Z,57.09
2022-12-03T20:32:07.315Z,56.43
2022-12-03T20:34:41.644Z,56.99
2022-12-03T20:37:08.388Z,56.91
2022-12-03T20:39:38.308Z,56.83
2022-12-03T20:42:07.556Z,56.84
2022-12-03T20:44:34.597Z,56.98
2022-12-03T20:47:07.275Z,57.02
2022-12-03T20:49:35.113Z,56.73
2022-12-03T20:52:04.507Z,56.66
2022-12-03T20:54:32.937Z,56.80
2022-12-03T20:56:59.663Z,57.10
2022-12-03T20:59:28.937Z,56.64
2022-12-03T21:01:59.068Z,56.62
2022-12-03T21:04:27.425Z,56.65
2022-12-03T21:06:56.125Z,56.52
2022-12-03T21:09:23.268Z,56.14
2022-12-03T21:11:50.267Z,56.44
2022-12-03T21:14:17.010Z,56.32
2022-12-03T21:17:07.866Z,56.70
2022-12-03T21:19:35.338Z,56.81
2022-12-03T21:22:03.723Z,56.67
2022-12-03T21:24:30.827Z,56.08
2022-12-03T21:27:02.558Z,56.77
2022-12-03T21:29:34.924Z,56.48
2022-12-03T21:32:02.184Z,56.40
2022-12-03T21:34:35.643Z,56.62
2022-12-03T21:37:05.485Z,56.02
2022-12-03T21:39:32.364Z,56.26
2022-12-03T21:42:34.367Z,56.20
2022-12-03T21:44:45.807Z,56.70
2022-12-03T21:47:14.349Z,56.57
2022-12-03T21:49:42.285Z,56.75
2022-12-03T21:52:11.556Z,56.87
2022-12-03T21:54:41.523Z,57.37
2022-12-03T21:57:08.293Z,57.21
2022-12-03T21:59:34.989Z,56.48
2022-12-03T22:02:04.543Z,56.48
2022-12-03T22:04:31.313Z,57.22
2022-12-03T22:07:00.286Z,57.84
2022-12-03T22:09:28.941Z,57.32
2022-12-03T22:11:57.825Z,57.17
2022-12-03T22:14:25.277Z,56.86
2022-12-03T22:16:52.743Z,56.57
2022-12-03T22:19:25.772Z,57.28
2022-12-03T22:21:52.734Z,57.25
2022-12-03T22:24:25.111Z,57.59
2022-12-03T22:26:59.072Z,57.27
2022-12-03T22:29:33.082Z,57.38
2022-12-03T22:32:14.217Z,57.62
2022-12-03T22:34:42.323Z,57.72
2022-12-03T22:37:09.338Z,57.39
2022-12-03T22:39:36.976Z,57.00
2022-12-03T22:42:07.350Z,56.89
2022-12-03T22:44:36.704Z,55.94
2022-12-03T22:47:04.441Z,56.09
2022-12-03T22:49:31.125Z,55.59
2022-12-03T22:51:57.885Z,55.71
2022-12-03T22:54:27.700Z,55.67
2022-12-03T22:57:18.751Z,56.04
2022-12-03T22:59:45.494Z,55.85
2022-12-03T23:02:17.979Z,55.77
2022-12-03T23:04:47.409Z,57.09
2022-12-03T23:07:15.870Z,56.74
2022-12-03T23:09:43.266Z,57.04
2022-12-03T23:12:10.419Z,57.50
2022-12-03T23:14:37.346Z,57.15
2022-12-03T23:17:04.919Z,57.71
2022-12-03T23:19:36.798Z,57.09
2022-12-03T23:22:06.774Z,56.90
2022-12-03T23:24:36.691Z,57.30
2022-12-03T23:27:06.097Z,56.74
2022-12-03T23:29:34.658Z,57.25
2022-12-03T23:32:04.075Z,57.32
2022-12-03T23:34:30.948Z,57.23
2022-12-03T23:36:58.089Z,56.73
2022-12-03T23:39:24.660Z,56.50
2022-12-03T23:41:52.288Z,56.15
2022-12-03T23:44:21.512Z,56.55
2022-12-03T23:46:48.322Z,56.55
2022-12-03T23:49:17.425Z,56.38
2022-12-03T23:51:45.435Z,56.60
2022-12-03T23:54:15.382Z,56.87
2022-12-03T23:56:42.115Z,56.88
2022-12-03T23:59:11.908Z,56.60
